sensor_id;sensor_type;location;lat;lon;timestamp;P1;durP1;ratioP1;P2;durP2;ratioP2
72065;SDS011;59939;52.516;13.420;2023-03-23T00:01:13;8.20;;;2.60;;
72065;SDS011;59939;52.516;13.420;2023-03-23T00:04:16;7.72;;;2.38;;
72065;SDS011;59939;52.516;13.420;2023-03-23T00:07:22;10.27;;;3.60;;
72065;SDS011;59939;52.516;13.420;2023-03-23T00:10:25;7.28;;;2.92;;
72065;SDS011;59939;52.516;13.420;2023-03-23T00:13:28;5.40;;;2.40;;
72065;SDS011;59939;52.516;13.420;2023-03-23T00:16:32;4.20;;;2.33;;
72065;SDS011;59939;52.516;13.420;2023-03-23T00:19:36;4.45;;;2.45;;
72065;SDS011;59939;52.516;13.420;2023-03-23T00:22:47;7.32;;;2.80;;
72065;SDS011;59939;52.516;13.420;2023-03-23T00:25:51;6.53;;;2.60;;
72065;SDS011;59939;52.516;13.420;2023-03-23T00:29:08;10.30;;;3.10;;
72065;SDS011;59939;52.516;13.420;2023-03-23T00:32:16;5.63;;;2.60;;
72065;SDS011;59939;52.516;13.420;2023-03-23T00:35:19;8.40;;;2.85;;
72065;SDS011;59939;52.516;13.420;2023-03-23T00:38:23;10.98;;;3.53;;
72065;SDS011;59939;52.516;13.420;2023-03-23T00:41:30;7.90;;;2.65;;
72065;SDS011;59939;52.516;13.420;2023-03-23T00:44:33;9.27;;;3.10;;
72065;SDS011;59939;52.516;13.420;2023-03-23T00:47:37;7.38;;;2.75;;
72065;SDS011;59939;52.516;13.420;2023-03-23T00:50:41;6.13;;;2.63;;
72065;SDS011;59939;52.516;13.420;2023-03-23T00:53:44;5.00;;;2.30;;
72065;SDS011;59939;52.516;13.420;2023-03-23T00:56:47;7.30;;;2.90;;
72065;SDS011;59939;52.516;13.420;2023-03-23T00:59:50;7.18;;;2.97;;
72065;SDS011;59939;52.516;13.420;2023-03-23T01:02:53;7.95;;;2.85;;
72065;SDS011;59939;52.516;13.420;2023-03-23T01:05:56;6.00;;;2.90;;
72065;SDS011;59939;52.516;13.420;2023-03-23T01:08:59;11.27;;;3.70;;
72065;SDS011;59939;52.516;13.420;2023-03-23T01:12:03;7.27;;;2.50;;
72065;SDS011;59939;52.516;13.420;2023-03-23T01:15:09;8.70;;;2.85;;
72065;SDS011;59939;52.516;13.420;2023-03-23T01:18:11;10.00;;;3.17;;
72065;SDS011;59939;52.516;13.420;2023-03-23T01:21:16;9.45;;;2.88;;
72065;SDS011;59939;52.516;13.420;2023-03-23T01:24:19;9.32;;;3.58;;
72065;SDS011;59939;52.516;13.420;2023-03-23T01:27:23;6.97;;;2.65;;
72065;SDS011;59939;52.516;13.420;2023-03-23T01:30:26;8.07;;;3.20;;
72065;SDS011;59939;52.516;13.420;2023-03-23T01:33:29;9.40;;;3.20;;
72065;SDS011;59939;52.516;13.420;2023-03-23T01:36:32;9.00;;;3.07;;
72065;SDS011;59939;52.516;13.420;2023-03-23T01:39:37;6.60;;;2.63;;
72065;SDS011;59939;52.516;13.420;2023-03-23T01:42:40;9.73;;;3.10;;
72065;SDS011;59939;52.516;13.420;2023-03-23T01:45:46;7.67;;;2.97;;
72065;SDS011;59939;52.516;13.420;2023-03-23T01:48:49;7.28;;;2.92;;
72065;SDS011;59939;52.516;13.420;2023-03-23T01:51:57;7.85;;;2.80;;
72065;SDS011;59939;52.516;13.420;2023-03-23T01:55:01;8.27;;;3.13;;
72065;SDS011;59939;52.516;13.420;2023-03-23T01:58:05;4.90;;;2.27;;
72065;SDS011;59939;52.516;13.420;2023-03-23T02:01:09;11.97;;;3.53;;
72065;SDS011;59939;52.516;13.420;2023-03-23T02:04:14;7.93;;;2.80;;
72065;SDS011;59939;52.516;13.420;2023-03-23T02:07:19;6.33;;;2.87;;
72065;SDS011;59939;52.516;13.420;2023-03-23T02:10:24;18.05;;;4.57;;
72065;SDS011;59939;52.516;13.420;2023-03-23T02:13:27;8.63;;;3.03;;
72065;SDS011;59939;52.516;13.420;2023-03-23T02:16:46;12.90;;;3.43;;
72065;SDS011;59939;52.516;13.420;2023-03-23T02:26:25;11.47;;;3.20;;
72065;SDS011;59939;52.516;13.420;2023-03-23T02:29:46;6.43;;;2.70;;
72065;SDS011;59939;52.516;13.420;2023-03-23T02:36:01;8.53;;;3.10;;
72065;SDS011;59939;52.516;13.420;2023-03-23T02:39:12;9.90;;;3.10;;
72065;SDS011;59939;52.516;13.420;2023-03-23T02:42:17;11.60;;;2.95;;
72065;SDS011;59939;52.516;13.420;2023-03-23T02:48:50;7.33;;;2.67;;
72065;SDS011;59939;52.516;13.420;2023-03-23T02:51:53;6.87;;;2.60;;
72065;SDS011;59939;52.516;13.420;2023-03-23T02:54:58;5.87;;;2.53;;
72065;SDS011;59939;52.516;13.420;2023-03-23T02:58:02;6.57;;;2.57;;
72065;SDS011;59939;52.516;13.420;2023-03-23T03:04:27;5.70;;;2.30;;
72065;SDS011;59939;52.516;13.420;2023-03-23T03:11:13;4.50;;;2.47;;
72065;SDS011;59939;52.516;13.420;2023-03-23T03:14:10;9.15;;;2.88;;
72065;SDS011;59939;52.516;13.420;2023-03-23T03:17:23;9.13;;;2.70;;
72065;SDS011;59939;52.516;13.420;2023-03-23T03:20:26;6.50;;;2.75;;
72065;SDS011;59939;52.516;13.420;2023-03-23T03:23:31;7.23;;;2.50;;
72065;SDS011;59939;52.516;13.420;2023-03-23T03:26:41;6.60;;;2.70;;
72065;SDS011;59939;52.516;13.420;2023-03-23T03:30:20;5.10;;;2.30;;
72065;SDS011;59939;52.516;13.420;2023-03-23T03:33:24;5.70;;;2.30;;
72065;SDS011;59939;52.516;13.420;2023-03-23T03:36:32;8.37;;;2.80;;
72065;SDS011;59939;52.516;13.420;2023-03-23T03:39:40;7.47;;;2.30;;
72065;SDS011;59939;52.516;13.420;2023-03-23T03:42:43;9.97;;;2.67;;
72065;SDS011;59939;52.516;13.420;2023-03-23T03:45:46;8.53;;;2.80;;
72065;SDS011;59939;52.516;13.420;2023-03-23T03:48:49;7.00;;;3.47;;
72065;SDS011;59939;52.516;13.420;2023-03-23T03:51:56;7.57;;;3.00;;
72065;SDS011;59939;52.516;13.420;2023-03-23T03:55:04;11.27;;;3.07;;
72065;SDS011;59939;52.516;13.420;2023-03-23T03:58:09;8.90;;;3.30;;
72065;SDS011;59939;52.516;13.420;2023-03-23T04:01:40;5.80;;;2.50;;
72065;SDS011;59939;52.516;13.420;2023-03-23T04:04:44;8.10;;;2.63;;
72065;SDS011;59939;52.516;13.420;2023-03-23T04:07:46;5.20;;;2.40;;
72065;SDS011;59939;52.516;13.420;2023-03-23T04:10:52;9.80;;;2.65;;
72065;SDS011;59939;52.516;13.420;2023-03-23T04:13:56;5.90;;;2.50;;
72065;SDS011;59939;52.516;13.420;2023-03-23T04:17:02;9.90;;;2.73;;
72065;SDS011;59939;52.516;13.420;2023-03-23T04:20:05;5.23;;;2.50;;
72065;SDS011;59939;52.516;13.420;2023-03-23T04:23:16;5.43;;;2.63;;
72065;SDS011;59939;52.516;13.420;2023-03-23T04:26:25;8.23;;;2.77;;
72065;SDS011;59939;52.516;13.420;2023-03-23T04:29:31;6.97;;;2.60;;
72065;SDS011;59939;52.516;13.420;2023-03-23T04:32:56;10.93;;;3.13;;
72065;SDS011;59939;52.516;13.420;2023-03-23T04:36:01;6.27;;;2.67;;
72065;SDS011;59939;52.516;13.420;2023-03-23T04:39:15;14.77;;;3.47;;
72065;SDS011;59939;52.516;13.420;2023-03-23T04:42:19;9.80;;;3.60;;
72065;SDS011;59939;52.516;13.420;2023-03-23T04:45:53;7.53;;;3.20;;
72065;SDS011;59939;52.516;13.420;2023-03-23T04:48:59;8.03;;;3.00;;
72065;SDS011;59939;52.516;13.420;2023-03-23T04:52:06;9.73;;;4.20;;
72065;SDS011;59939;52.516;13.420;2023-03-23T04:55:20;8.63;;;6.20;;
72065;SDS011;59939;52.516;13.420;2023-03-23T04:58:31;12.40;;;9.50;;
72065;SDS011;59939;52.516;13.420;2023-03-23T05:01:50;11.90;;;7.97;;
72065;SDS011;59939;52.516;13.420;2023-03-23T05:04:54;8.50;;;5.30;;
72065;SDS011;59939;52.516;13.420;2023-03-23T05:08:01;9.67;;;4.27;;
72065;SDS011;59939;52.516;13.420;2023-03-23T05:11:07;8.27;;;6.40;;
72065;SDS011;59939;52.516;13.420;2023-03-23T05:14:14;19.77;;;18.07;;
72065;SDS011;59939;52.516;13.420;2023-03-23T05:17:20;23.43;;;21.73;;
72065;SDS011;59939;52.516;13.420;2023-03-23T05:20:25;23.77;;;21.97;;
72065;SDS011;59939;52.516;13.420;2023-03-23T05:23:37;21.97;;;20.30;;
72065;SDS011;59939;52.516;13.420;2023-03-23T05:26:52;20.10;;;18.50;;
72065;SDS011;59939;52.516;13.420;2023-03-23T05:29:59;16.43;;;14.90;;
72065;SDS011;59939;52.516;13.420;2023-03-23T05:33:05;17.40;;;15.80;;
72065;SDS011;59939;52.516;13.420;2023-03-23T05:36:37;17.47;;;15.90;;
72065;SDS011;59939;52.516;13.420;2023-03-23T05:40:01;14.03;;;12.30;;
72065;SDS011;59939;52.516;13.420;2023-03-23T05:43:30;14.23;;;12.87;;
72065;SDS011;59939;52.516;13.420;2023-03-23T05:46:48;16.30;;;14.03;;
72065;SDS011;59939;52.516;13.420;2023-03-23T05:49:52;15.43;;;13.97;;
72065;SDS011;59939;52.516;13.420;2023-03-23T05:52:57;14.03;;;12.73;;
72065;SDS011;59939;52.516;13.420;2023-03-23T05:56:02;13.70;;;12.40;;
72065;SDS011;59939;52.516;13.420;2023-03-23T05:59:25;17.63;;;15.07;;
72065;SDS011;59939;52.516;13.420;2023-03-23T06:02:31;16.57;;;15.03;;
72065;SDS011;59939;52.516;13.420;2023-03-23T06:05:34;15.33;;;13.83;;
72065;SDS011;59939;52.516;13.420;2023-03-23T06:08:37;14.33;;;12.93;;
72065;SDS011;59939;52.516;13.420;2023-03-23T06:11:40;15.70;;;14.10;;
72065;SDS011;59939;52.516;13.420;2023-03-23T06:15:02;15.40;;;13.50;;
72065;SDS011;59939;52.516;13.420;2023-03-23T06:18:27;15.77;;;14.17;;
72065;SDS011;59939;52.516;13.420;2023-03-23T06:21:44;19.73;;;17.97;;
72065;SDS011;59939;52.516;13.420;2023-03-23T06:25:00;15.93;;;14.50;;
72065;SDS011;59939;52.516;13.420;2023-03-23T06:28:11;17.80;;;16.10;;
72065;SDS011;59939;52.516;13.420;2023-03-23T06:31:18;18.90;;;17.30;;
72065;SDS011;59939;52.516;13.420;2023-03-23T06:34:24;20.17;;;18.67;;
72065;SDS011;59939;52.516;13.420;2023-03-23T06:38:02;23.27;;;21.57;;
72065;SDS011;59939;52.516;13.420;2023-03-23T06:41:13;29.10;;;27.30;;
72065;SDS011;59939;52.516;13.420;2023-03-23T06:44:16;26.27;;;24.37;;
72065;SDS011;59939;52.516;13.420;2023-03-23T06:47:18;28.43;;;26.53;;
72065;SDS011;59939;52.516;13.420;2023-03-23T06:50:23;28.13;;;26.23;;
72065;SDS011;59939;52.516;13.420;2023-03-23T06:53:27;27.63;;;25.67;;
72065;SDS011;59939;52.516;13.420;2023-03-23T06:56:32;33.10;;;31.07;;
72065;SDS011;59939;52.516;13.420;2023-03-23T06:59:35;33.83;;;31.73;;
72065;SDS011;59939;52.516;13.420;2023-03-23T07:02:41;38.20;;;36.00;;
72065;SDS011;59939;52.516;13.420;2023-03-23T07:05:48;39.83;;;37.53;;
72065;SDS011;59939;52.516;13.420;2023-03-23T07:08:53;37.37;;;35.30;;
72065;SDS011;59939;52.516;13.420;2023-03-23T07:11:59;39.03;;;36.63;;
72065;SDS011;59939;52.516;13.420;2023-03-23T07:15:10;39.53;;;37.23;;
72065;SDS011;59939;52.516;13.420;2023-03-23T07:18:15;41.13;;;38.73;;
72065;SDS011;59939;52.516;13.420;2023-03-23T07:21:21;42.00;;;39.47;;
72065;SDS011;59939;52.516;13.420;2023-03-23T07:24:25;41.50;;;39.20;;
72065;SDS011;59939;52.516;13.420;2023-03-23T07:27:40;49.20;;;46.60;;
72065;SDS011;59939;52.516;13.420;2023-03-23T07:30:44;59.03;;;55.93;;
72065;SDS011;59939;52.516;13.420;2023-03-23T07:33:48;60.63;;;57.43;;
72065;SDS011;59939;52.516;13.420;2023-03-23T07:36:50;60.03;;;57.03;;
72065;SDS011;59939;52.516;13.420;2023-03-23T07:39:53;63.43;;;59.80;;
72065;SDS011;59939;52.516;13.420;2023-03-23T07:42:57;59.80;;;56.60;;
72065;SDS011;59939;52.516;13.420;2023-03-23T07:46:20;53.77;;;50.87;;
72065;SDS011;59939;52.516;13.420;2023-03-23T07:49:39;52.67;;;49.43;;
72065;SDS011;59939;52.516;13.420;2023-03-23T07:53:01;50.77;;;48.07;;
72065;SDS011;59939;52.516;13.420;2023-03-23T07:56:07;53.90;;;50.83;;
72065;SDS011;59939;52.516;13.420;2023-03-23T07:59:25;52.23;;;49.43;;
72065;SDS011;59939;52.516;13.420;2023-03-23T08:02:29;52.40;;;49.70;;
72065;SDS011;59939;52.516;13.420;2023-03-23T08:05:53;56.27;;;53.27;;
72065;SDS011;59939;52.516;13.420;2023-03-23T08:09:24;54.83;;;51.73;;
72065;SDS011;59939;52.516;13.420;2023-03-23T08:12:46;59.07;;;55.77;;
72065;SDS011;59939;52.516;13.420;2023-03-23T08:16:22;61.17;;;58.17;;
72065;SDS011;59939;52.516;13.420;2023-03-23T08:19:39;59.57;;;56.57;;
72065;SDS011;59939;52.516;13.420;2023-03-23T08:23:18;60.37;;;57.27;;
72065;SDS011;59939;52.516;13.420;2023-03-23T08:26:38;61.77;;;58.63;;
72065;SDS011;59939;52.516;13.420;2023-03-23T08:30:01;62.70;;;59.50;;
72065;SDS011;59939;52.516;13.420;2023-03-23T08:33:22;63.87;;;60.77;;
72065;SDS011;59939;52.516;13.420;2023-03-23T08:36:47;64.53;;;61.23;;
72065;SDS011;59939;52.516;13.420;2023-03-23T08:39:56;61.57;;;58.53;;
72065;SDS011;59939;52.516;13.420;2023-03-23T08:43:14;62.40;;;59.17;;
72065;SDS011;59939;52.516;13.420;2023-03-23T08:46:37;57.07;;;54.37;;
72065;SDS011;59939;52.516;13.420;2023-03-23T08:49:49;58.20;;;55.30;;
72065;SDS011;59939;52.516;13.420;2023-03-23T08:53:14;57.43;;;54.70;;
72065;SDS011;59939;52.516;13.420;2023-03-23T08:56:32;57.80;;;54.90;;
72065;SDS011;59939;52.516;13.420;2023-03-23T08:59:53;59.20;;;56.10;;
72065;SDS011;59939;52.516;13.420;2023-03-23T09:03:38;63.13;;;60.13;;
72065;SDS011;59939;52.516;13.420;2023-03-23T09:06:55;58.03;;;55.30;;
72065;SDS011;59939;52.516;13.420;2023-03-23T09:09:58;49.13;;;46.67;;
72065;SDS011;59939;52.516;13.420;2023-03-23T09:13:01;38.45;;;36.35;;
72065;SDS011;59939;52.516;13.420;2023-03-23T09:16:05;30.37;;;28.27;;
72065;SDS011;59939;52.516;13.420;2023-03-23T09:19:08;19.50;;;17.93;;
72065;SDS011;59939;52.516;13.420;2023-03-23T09:22:12;10.65;;;9.55;;
72065;SDS011;59939;52.516;13.420;2023-03-23T09:25:16;10.77;;;4.80;;
72065;SDS011;59939;52.516;13.420;2023-03-23T09:28:21;8.13;;;4.60;;
72065;SDS011;59939;52.516;13.420;2023-03-23T09:31:24;8.47;;;4.60;;
72065;SDS011;59939;52.516;13.420;2023-03-23T09:34:29;12.40;;;5.20;;
72065;SDS011;59939;52.516;13.420;2023-03-23T09:37:31;8.37;;;5.10;;
72065;SDS011;59939;52.516;13.420;2023-03-23T09:40:43;6.95;;;4.72;;
72065;SDS011;59939;52.516;13.420;2023-03-23T09:44:07;8.70;;;5.13;;
72065;SDS011;59939;52.516;13.420;2023-03-23T09:50:20;7.97;;;4.97;;
72065;SDS011;59939;52.516;13.420;2023-03-23T09:53:26;7.32;;;4.72;;
72065;SDS011;59939;52.516;13.420;2023-03-23T09:56:31;8.40;;;5.32;;
72065;SDS011;59939;52.516;13.420;2023-03-23T09:59:44;6.32;;;4.70;;
72065;SDS011;59939;52.516;13.420;2023-03-23T10:05:55;8.57;;;5.75;;
72065;SDS011;59939;52.516;13.420;2023-03-23T10:09:00;7.30;;;5.03;;
72065;SDS011;59939;52.516;13.420;2023-03-23T10:12:10;6.60;;;5.28;;
72065;SDS011;59939;52.516;13.420;2023-03-23T10:15:16;8.40;;;5.18;;
72065;SDS011;59939;52.516;13.420;2023-03-23T10:18:24;7.05;;;4.80;;
72065;SDS011;59939;52.516;13.420;2023-03-23T10:21:29;9.95;;;5.20;;
72065;SDS011;59939;52.516;13.420;2023-03-23T10:24:36;5.88;;;4.07;;
72065;SDS011;59939;52.516;13.420;2023-03-23T10:27:44;5.40;;;4.10;;
72065;SDS011;59939;52.516;13.420;2023-03-23T10:30:51;7.75;;;4.35;;
72065;SDS011;59939;52.516;13.420;2023-03-23T10:33:56;5.80;;;3.90;;
72065;SDS011;59939;52.516;13.420;2023-03-23T10:37:11;4.78;;;3.72;;
72065;SDS011;59939;52.516;13.420;2023-03-23T10:40:17;7.68;;;3.97;;
72065;SDS011;59939;52.516;13.420;2023-03-23T10:43:21;5.95;;;3.63;;
72065;SDS011;59939;52.516;13.420;2023-03-23T10:46:34;8.32;;;3.90;;
72065;SDS011;59939;52.516;13.420;2023-03-23T10:49:41;7.22;;;4.40;;
72065;SDS011;59939;52.516;13.420;2023-03-23T10:52:45;7.20;;;4.35;;
72065;SDS011;59939;52.516;13.420;2023-03-23T10:55:48;5.32;;;4.18;;
72065;SDS011;59939;52.516;13.420;2023-03-23T10:58:53;6.32;;;4.15;;
72065;SDS011;59939;52.516;13.420;2023-03-23T11:01:57;5.38;;;1.90;;
72065;SDS011;59939;52.516;13.420;2023-03-23T11:05:03;3.50;;;1.88;;
72065;SDS011;59939;52.516;13.420;2023-03-23T11:08:12;5.25;;;2.10;;
72065;SDS011;59939;52.516;13.420;2023-03-23T11:11:17;4.43;;;1.88;;
72065;SDS011;59939;52.516;13.420;2023-03-23T11:14:25;5.70;;;1.92;;
72065;SDS011;59939;52.516;13.420;2023-03-23T11:17:30;5.60;;;1.52;;
72065;SDS011;59939;52.516;13.420;2023-03-23T11:20:37;5.40;;;1.88;;
72065;SDS011;59939;52.516;13.420;2023-03-23T11:23:47;3.88;;;1.90;;
72065;SDS011;59939;52.516;13.420;2023-03-23T11:26:50;6.35;;;2.00;;
72065;SDS011;59939;52.516;13.420;2023-03-23T11:33:11;4.82;;;1.83;;
72065;SDS011;59939;52.516;13.420;2023-03-23T11:36:18;6.25;;;1.85;;
72065;SDS011;59939;52.516;13.420;2023-03-23T11:39:31;4.90;;;1.73;;
72065;SDS011;59939;52.516;13.420;2023-03-23T11:42:36;4.78;;;2.53;;
72065;SDS011;59939;52.516;13.420;2023-03-23T11:45:41;4.65;;;1.52;;
72065;SDS011;59939;52.516;13.420;2023-03-23T11:48:56;4.82;;;1.90;;
72065;SDS011;59939;52.516;13.420;2023-03-23T11:52:05;4.38;;;1.65;;
72065;SDS011;59939;52.516;13.420;2023-03-23T11:58:35;3.85;;;1.63;;
72065;SDS011;59939;52.516;13.420;2023-03-23T12:05:10;7.97;;;1.77;;
72065;SDS011;59939;52.516;13.420;2023-03-23T12:14:50;4.75;;;2.00;;
72065;SDS011;59939;52.516;13.420;2023-03-23T12:18:06;3.47;;;1.80;;
72065;SDS011;59939;52.516;13.420;2023-03-23T12:21:18;6.40;;;2.17;;
72065;SDS011;59939;52.516;13.420;2023-03-23T12:24:28;4.25;;;1.70;;
72065;SDS011;59939;52.516;13.420;2023-03-23T12:30:51;4.43;;;1.58;;
72065;SDS011;59939;52.516;13.420;2023-03-23T12:37:10;5.55;;;2.10;;
72065;SDS011;59939;52.516;13.420;2023-03-23T12:40:19;2.78;;;1.65;;
72065;SDS011;59939;52.516;13.420;2023-03-23T12:43:46;6.32;;;1.95;;
72065;SDS011;59939;52.516;13.420;2023-03-23T12:46:56;2.83;;;1.60;;
72065;SDS011;59939;52.516;13.420;2023-03-23T12:50:11;5.93;;;2.03;;
72065;SDS011;59939;52.516;13.420;2023-03-23T12:53:23;5.18;;;1.75;;
72065;SDS011;59939;52.516;13.420;2023-03-23T12:56:29;5.22;;;1.95;;
72065;SDS011;59939;52.516;13.420;2023-03-23T12:59:36;6.53;;;2.30;;
72065;SDS011;59939;52.516;13.420;2023-03-23T13:06:15;5.70;;;2.05;;
72065;SDS011;59939;52.516;13.420;2023-03-23T13:12:35;5.32;;;2.20;;
72065;SDS011;59939;52.516;13.420;2023-03-23T13:15:46;7.20;;;2.15;;
72065;SDS011;59939;52.516;13.420;2023-03-23T13:22:28;6.93;;;2.40;;
72065;SDS011;59939;52.516;13.420;2023-03-23T13:28:57;6.05;;;2.20;;
72065;SDS011;59939;52.516;13.420;2023-03-23T13:32:16;5.50;;;2.17;;
72065;SDS011;59939;52.516;13.420;2023-03-23T13:35:19;7.35;;;2.20;;
72065;SDS011;59939;52.516;13.420;2023-03-23T13:38:25;4.32;;;2.08;;
72065;SDS011;59939;52.516;13.420;2023-03-23T13:41:28;3.97;;;2.00;;
72065;SDS011;59939;52.516;13.420;2023-03-23T13:44:54;6.07;;;2.53;;
72065;SDS011;59939;52.516;13.420;2023-03-23T13:51:27;6.32;;;2.08;;
72065;SDS011;59939;52.516;13.420;2023-03-23T13:57:50;4.18;;;1.33;;
72065;SDS011;59939;52.516;13.420;2023-03-23T14:04:14;7.75;;;1.90;;
72065;SDS011;59939;52.516;13.420;2023-03-23T14:07:18;4.40;;;1.60;;
72065;SDS011;59939;52.516;13.420;2023-03-23T14:10:37;6.05;;;1.95;;
72065;SDS011;59939;52.516;13.420;2023-03-23T14:13:43;6.00;;;1.77;;
72065;SDS011;59939;52.516;13.420;2023-03-23T14:16:48;5.10;;;2.00;;
72065;SDS011;59939;52.516;13.420;2023-03-23T14:19:54;5.90;;;1.75;;
72065;SDS011;59939;52.516;13.420;2023-03-23T14:23:03;8.13;;;1.63;;
72065;SDS011;59939;52.516;13.420;2023-03-23T14:26:17;2.85;;;1.40;;
72065;SDS011;59939;52.516;13.420;2023-03-23T14:29:20;4.53;;;1.40;;
72065;SDS011;59939;52.516;13.420;2023-03-23T14:32:23;3.88;;;1.60;;
72065;SDS011;59939;52.516;13.420;2023-03-23T14:35:33;6.22;;;1.50;;
72065;SDS011;59939;52.516;13.420;2023-03-23T14:38:36;7.15;;;2.25;;
72065;SDS011;59939;52.516;13.420;2023-03-23T14:41:39;3.38;;;1.20;;
72065;SDS011;59939;52.516;13.420;2023-03-23T14:44:43;4.78;;;1.65;;
72065;SDS011;59939;52.516;13.420;2023-03-23T14:47:47;5.28;;;2.00;;
72065;SDS011;59939;52.516;13.420;2023-03-23T14:50:51;8.65;;;2.33;;
72065;SDS011;59939;52.516;13.420;2023-03-23T14:53:57;2.42;;;1.30;;
72065;SDS011;59939;52.516;13.420;2023-03-23T14:57:14;3.88;;;1.48;;
72065;SDS011;59939;52.516;13.420;2023-03-23T15:00:20;3.90;;;1.70;;
72065;SDS011;59939;52.516;13.420;2023-03-23T15:03:24;8.80;;;2.65;;
72065;SDS011;59939;52.516;13.420;2023-03-23T15:06:28;6.25;;;2.00;;
72065;SDS011;59939;52.516;13.420;2023-03-23T15:09:32;2.67;;;1.50;;
72065;SDS011;59939;52.516;13.420;2023-03-23T15:12:36;7.25;;;1.60;;
72065;SDS011;59939;52.516;13.420;2023-03-23T15:15:39;7.15;;;2.17;;
72065;SDS011;59939;52.516;13.420;2023-03-23T15:18:44;6.47;;;2.08;;
72065;SDS011;59939;52.516;13.420;2023-03-23T15:21:54;2.70;;;1.48;;
72065;SDS011;59939;52.516;13.420;2023-03-23T15:25:18;7.68;;;2.08;;
72065;SDS011;59939;52.516;13.420;2023-03-23T15:28:27;4.93;;;1.60;;
72065;SDS011;59939;52.516;13.420;2023-03-23T15:31:30;5.28;;;1.52;;
72065;SDS011;59939;52.516;13.420;2023-03-23T15:34:36;4.78;;;2.22;;
72065;SDS011;59939;52.516;13.420;2023-03-23T15:37:43;4.35;;;1.35;;
72065;SDS011;59939;52.516;13.420;2023-03-23T15:40:48;3.28;;;1.60;;
72065;SDS011;59939;52.516;13.420;2023-03-23T15:43:54;4.38;;;1.70;;
72065;SDS011;59939;52.516;13.420;2023-03-23T15:47:18;4.13;;;1.70;;
72065;SDS011;59939;52.516;13.420;2023-03-23T15:53:36;3.88;;;1.60;;
72065;SDS011;59939;52.516;13.420;2023-03-23T15:56:42;5.28;;;1.40;;
72065;SDS011;59939;52.516;13.420;2023-03-23T15:59:45;3.13;;;1.20;;
72065;SDS011;59939;52.516;13.420;2023-03-23T16:02:53;3.92;;;1.33;;
72065;SDS011;59939;52.516;13.420;2023-03-23T16:06:00;1.05;;;0.90;;
72065;SDS011;59939;52.516;13.420;2023-03-23T16:09:14;4.38;;;1.52;;
72065;SDS011;59939;52.516;13.420;2023-03-23T16:12:21;2.47;;;1.20;;
72065;SDS011;59939;52.516;13.420;2023-03-23T16:15:24;7.25;;;1.85;;
72065;SDS011;59939;52.516;13.420;2023-03-23T16:18:28;4.65;;;1.42;;
72065;SDS011;59939;52.516;13.420;2023-03-23T16:21:32;5.47;;;1.45;;
72065;SDS011;59939;52.516;13.420;2023-03-23T16:24:49;9.48;;;2.38;;
72065;SDS011;59939;52.516;13.420;2023-03-23T16:27:56;6.70;;;1.75;;
72065;SDS011;59939;52.516;13.420;2023-03-23T16:31:02;6.32;;;1.77;;
72065;SDS011;59939;52.516;13.420;2023-03-23T16:34:06;6.25;;;1.90;;
72065;SDS011;59939;52.516;13.420;2023-03-23T16:37:10;4.80;;;2.08;;
72065;SDS011;59939;52.516;13.420;2023-03-23T16:40:22;9.25;;;2.38;;
72065;SDS011;59939;52.516;13.420;2023-03-23T16:43:26;4.30;;;1.85;;
72065;SDS011;59939;52.516;13.420;2023-03-23T16:46:30;7.40;;;1.90;;
72065;SDS011;59939;52.516;13.420;2023-03-23T16:49:34;6.63;;;1.90;;
72065;SDS011;59939;52.516;13.420;2023-03-23T16:52:41;7.32;;;2.15;;
72065;SDS011;59939;52.516;13.420;2023-03-23T16:55:52;9.18;;;2.20;;
72065;SDS011;59939;52.516;13.420;2023-03-23T16:58:58;6.57;;;2.28;;
72065;SDS011;59939;52.516;13.420;2023-03-23T17:02:02;10.32;;;2.60;;
72065;SDS011;59939;52.516;13.420;2023-03-23T17:05:07;8.95;;;2.20;;
72065;SDS011;59939;52.516;13.420;2023-03-23T17:08:12;9.07;;;2.28;;
72065;SDS011;59939;52.516;13.420;2023-03-23T17:11:18;7.40;;;2.13;;
72065;SDS011;59939;52.516;13.420;2023-03-23T17:14:22;7.80;;;2.22;;
72065;SDS011;59939;52.516;13.420;2023-03-23T17:17:28;8.27;;;2.40;;
72065;SDS011;59939;52.516;13.420;2023-03-23T17:20:32;8.52;;;2.53;;
72065;SDS011;59939;52.516;13.420;2023-03-23T17:23:51;8.90;;;2.60;;
72065;SDS011;59939;52.516;13.420;2023-03-23T17:26:55;10.02;;;3.22;;
72065;SDS011;59939;52.516;13.420;2023-03-23T17:30:02;10.93;;;2.70;;
72065;SDS011;59939;52.516;13.420;2023-03-23T17:33:06;7.47;;;2.10;;
72065;SDS011;59939;52.516;13.420;2023-03-23T17:36:10;10.35;;;2.90;;
72065;SDS011;59939;52.516;13.420;2023-03-23T17:39:15;8.77;;;2.50;;
72065;SDS011;59939;52.516;13.420;2023-03-23T17:42:19;6.00;;;2.20;;
72065;SDS011;59939;52.516;13.420;2023-03-23T17:45:24;8.85;;;3.00;;
72065;SDS011;59939;52.516;13.420;2023-03-23T17:48:29;6.47;;;3.00;;
72065;SDS011;59939;52.516;13.420;2023-03-23T17:51:35;9.90;;;3.40;;
72065;SDS011;59939;52.516;13.420;2023-03-23T17:54:38;7.22;;;3.08;;
72065;SDS011;59939;52.516;13.420;2023-03-23T17:57:43;7.07;;;2.78;;
72065;SDS011;59939;52.516;13.420;2023-03-23T18:00:47;6.00;;;2.40;;
72065;SDS011;59939;52.516;13.420;2023-03-23T18:03:53;8.65;;;2.85;;
72065;SDS011;59939;52.516;13.420;2023-03-23T18:06:59;7.35;;;2.33;;
72065;SDS011;59939;52.516;13.420;2023-03-23T18:10:05;8.93;;;2.67;;
72065;SDS011;59939;52.516;13.420;2023-03-23T18:13:15;5.35;;;2.20;;
72065;SDS011;59939;52.516;13.420;2023-03-23T18:16:18;7.30;;;2.45;;
72065;SDS011;59939;52.516;13.420;2023-03-23T18:19:23;9.02;;;2.45;;
72065;SDS011;59939;52.516;13.420;2023-03-23T18:22:26;9.80;;;2.58;;
72065;SDS011;59939;52.516;13.420;2023-03-23T18:25:30;8.87;;;2.60;;
72065;SDS011;59939;52.516;13.420;2023-03-23T18:28:33;11.88;;;2.80;;
72065;SDS011;59939;52.516;13.420;2023-03-23T18:31:37;8.88;;;2.65;;
72065;SDS011;59939;52.516;13.420;2023-03-23T18:34:42;8.25;;;2.72;;
72065;SDS011;59939;52.516;13.420;2023-03-23T18:37:46;6.97;;;2.33;;
72065;SDS011;59939;52.516;13.420;2023-03-23T18:40:50;7.95;;;2.60;;
72065;SDS011;59939;52.516;13.420;2023-03-23T18:43:54;6.43;;;5.90;;
72065;SDS011;59939;52.516;13.420;2023-03-23T18:46:59;33.60;;;31.48;;
72065;SDS011;59939;52.516;13.420;2023-03-23T18:50:07;34.00;;;32.00;;
72065;SDS011;59939;52.516;13.420;2023-03-23T18:53:11;33.20;;;31.08;;
72065;SDS011;59939;52.516;13.420;2023-03-23T18:56:17;31.33;;;29.33;;
72065;SDS011;59939;52.516;13.420;2023-03-23T18:59:20;31.30;;;29.30;;
72065;SDS011;59939;52.516;13.420;2023-03-23T19:02:26;31.25;;;28.95;;
72065;SDS011;59939;52.516;13.420;2023-03-23T19:05:31;31.63;;;29.53;;
72065;SDS011;59939;52.516;13.420;2023-03-23T19:08:35;30.00;;;28.00;;
72065;SDS011;59939;52.516;13.420;2023-03-23T19:11:38;31.07;;;28.77;;
72065;SDS011;59939;52.516;13.420;2023-03-23T19:14:43;29.00;;;27.10;;
72065;SDS011;59939;52.516;13.420;2023-03-23T19:17:46;29.25;;;27.05;;
72065;SDS011;59939;52.516;13.420;2023-03-23T19:20:51;29.10;;;27.00;;
72065;SDS011;59939;52.516;13.420;2023-03-23T19:23:59;31.75;;;29.65;;
72065;SDS011;59939;52.516;13.420;2023-03-23T19:27:04;31.10;;;28.87;;
72065;SDS011;59939;52.516;13.420;2023-03-23T19:30:08;31.07;;;29.07;;
72065;SDS011;59939;52.516;13.420;2023-03-23T19:33:12;29.37;;;27.27;;
72065;SDS011;59939;52.516;13.420;2023-03-23T19:36:16;28.00;;;25.77;;
72065;SDS011;59939;52.516;13.420;2023-03-23T19:39:21;26.67;;;24.73;;
72065;SDS011;59939;52.516;13.420;2023-03-23T19:42:26;24.80;;;22.90;;